Time;durP1;ratioP1;P1;durP2;ratioP2;P2;SDS_P1;SDS_P2;PMS_P1;PMS_P2;Temp;Humidity;BMP_temperature;BMP_pressure;BME280_temperature;BME280_humidity;BME280_pressure;Samples;Min_cycle;Max_cycle;Signal;HPM_P1;HPM_P2
2021/08/22 00:00:35;;;;;;;;;;;21.00;70.20;;;;;;5031963;28;1139;-76
2021/08/22 00:03:00;;;;;;;;;;;21.00;70.20;;;;;;5032357;28;1214;-75
2021/08/22 00:05:26;;;;;;;;;;;21.00;70.20;;;;;;5031300;28;1071;-76
2021/08/22 00:07:51;;;;;;;;;;;21.00;70.20;;;;;;5032576;28;1007;-76
2021/08/22 00:10:16;;;;;;;;;;;21.00;70.20;;;;;;5045519;28;1957;-75
2021/08/22 00:12:42;;;;;;;;;;;21.00;70.20;;;;;;5049767;23;2589;-64
2021/08/22 00:15:08;;;;;;;;;;;21.00;70.20;;;;;;5031887;28;1275;-64
2021/08/22 00:17:33;;;;;;;;;;;21.00;70.20;;;;;;5032376;28;1662;-64
2021/08/22 00:19:58;;;;;;;;;;;21.00;70.20;;;;;;5032388;28;1409;-64
2021/08/22 00:22:24;;;;;;;;;;;21.00;70.20;;;;;;5031383;28;1679;-64
2021/08/22 00:24:49;;;;;;;;;;;21.00;70.20;;;;;;5031814;28;1432;-64
2021/08/22 00:27:15;;;;;;;;;;;21.00;70.20;;;;;;5032579;28;1627;-64
2021/08/22 00:29:40;;;;;;;;;;;21.00;70.20;;;;;;5032142;28;1973;-64
2021/08/22 00:32:06;;;;;;;;;;;21.00;70.20;;;;;;5023730;28;1592;-64
2021/08/22 00:34:31;;;;;;;;;;;21.00;70.20;;;;;;5009829;28;1315;-64
2021/08/22 00:36:57;;;;;;;;;;;21.00;70.10;;;;;;5014327;28;1629;-64
2021/08/22 00:39:26;;;;;;;;;;;21.00;70.10;;;;;;5031043;28;1684;-64
2021/08/22 00:41:52;;;;;;;;;;;21.00;70.10;;;;;;5032425;28;1699;-64
2021/08/22 00:44:17;;;;;;;;;;;21.00;70.10;;;;;;5030684;28;1512;-63
2021/08/22 00:46:43;;;;;;;;;;;21.00;70.10;;;;;;5032478;28;1371;-63
2021/08/22 00:49:08;;;;;;;;;;;21.00;70.10;;;;;;5029499;28;1902;-64
2021/08/22 00:51:34;;;;;;;;;;;21.00;70.10;;;;;;5015882;28;1358;-64
2021/08/22 00:53:59;;;;;;;;;;;21.00;70.10;;;;;;5015385;28;1723;-64
2021/08/22 00:56:25;;;;;;;;;;;21.00;70.10;;;;;;5014098;28;1131;-65
2021/08/22 00:58:50;;;;;;;;;;;21.00;70.10;;;;;;5016652;28;1379;-64
2021/08/22 01:01:16;;;;;;;;;;;21.00;70.10;;;;;;5014826;28;1285;-64
2021/08/22 01:03:50;;;;;;;;;;;21.00;70.10;;;;;;5013964;28;1409;-66
2021/08/22 01:06:18;;;;;;;;;;;21.00;70.10;;;;;;5014345;28;1321;-66
2021/08/22 01:08:44;;;;;;;;;;;21.00;70.00;;;;;;5033414;28;1906;-66
2021/08/22 01:11:10;;;;;;;;;;;21.00;70.10;;;;;;5035421;28;1328;-66
2021/08/22 01:13:37;;;;;;;;;;;21.00;70.00;;;;;;5033528;28;1319;-65
2021/08/22 01:16:04;;;;;;;;;;;21.00;70.10;;;;;;5033993;28;1279;-65
2021/08/22 01:18:29;;;;;;;;;;;21.00;70.00;;;;;;5034055;28;1449;-65
2021/08/22 01:21:08;;;;;;;;;;;21.00;70.00;;;;;;5033837;28;1364;-65
2021/08/22 01:23:34;;;;;;;;;;;21.00;70.00;;;;;;5034781;28;1307;-65
2021/08/22 01:25:59;;;;;;;;;;;21.00;70.00;;;;;;5033651;28;1288;-65
2021/08/22 01:28:25;;;;;;;;;;;21.00;70.00;;;;;;5034963;28;1277;-65
2021/08/22 01:30:50;;;;;;;;;;;21.00;70.00;;;;;;5033551;28;1906;-65
2021/08/22 01:33:16;;;;;;;;;;;21.00;70.00;;;;;;5015184;28;1403;-65
2021/08/22 01:35:41;;;;;;;;;;;21.00;69.90;;;;;;5013572;28;1304;-65
2021/08/22 01:38:07;;;;;;;;;;;21.00;70.00;;;;;;5015288;28;1339;-65
2021/08/22 01:40:33;;;;;;;;;;;20.90;69.80;;;;;;5015582;28;1331;-65
2021/08/22 01:42:58;;;;;;;;;;;20.90;69.80;;;;;;5014972;28;1304;-65
2021/08/22 01:45:24;;;;;;;;;;;21.00;69.90;;;;;;5013350;28;1292;-65
2021/08/22 01:47:49;;;;;;;;;;;21.00;69.80;;;;;;5014915;28;2035;-65
2021/08/22 01:50:15;;;;;;;;;;;21.00;69.80;;;;;;5013204;28;1898;-64
2021/08/22 01:52:40;;;;;;;;;;;21.00;69.80;;;;;;5014755;28;1351;-65
2021/08/22 01:55:06;;;;;;;;;;;20.90;69.70;;;;;;5008909;28;2403;-65
2021/08/22 01:57:32;;;;;;;;;;;21.00;69.80;;;;;;5014345;28;1607;-65
2021/08/22 01:59:57;;;;;;;;;;;20.90;69.70;;;;;;5013479;28;1503;-65
2021/08/22 02:02:23;;;;;;;;;;;20.90;69.70;;;;;;5014690;28;1612;-65
2021/08/22 02:04:55;;;;;;;;;;;21.00;69.80;;;;;;5028121;28;1578;-65
2021/08/22 02:07:21;;;;;;;;;;;21.00;69.70;;;;;;5033371;28;1240;-66
2021/08/22 02:09:50;;;;;;;;;;;21.00;69.80;;;;;;5032818;28;1981;-66
2021/08/22 02:12:16;;;;;;;;;;;21.00;69.70;;;;;;5012826;28;1357;-66
2021/08/22 02:14:44;;;;;;;;;;;20.90;69.60;;;;;;5021387;28;1086;-66
2021/08/22 02:17:09;;;;;;;;;;;20.90;69.60;;;;;;5008077;28;1246;-65
2021/08/22 02:19:35;;;;;;;;;;;20.90;69.60;;;;;;5029049;28;1389;-65
2021/08/22 02:22:00;;;;;;;;;;;21.00;69.70;;;;;;5012946;28;1323;-64
2021/08/22 02:24:26;;;;;;;;;;;21.00;69.60;;;;;;5006592;28;1382;-65
2021/08/22 02:26:51;;;;;;;;;;;21.00;69.60;;;;;;5022293;28;1099;-65
2021/08/22 02:29:16;;;;;;;;;;;20.90;69.50;;;;;;5032624;28;1973;-65
2021/08/22 02:31:42;;;;;;;;;;;21.00;69.60;;;;;;5025343;28;1373;-65
2021/08/22 02:34:07;;;;;;;;;;;21.00;69.60;;;;;;5012071;28;1265;-66
2021/08/22 02:36:33;;;;;;;;;;;20.90;69.50;;;;;;5014121;28;1244;-65
2021/08/22 02:38:58;;;;;;;;;;;20.90;69.50;;;;;;5014107;28;1263;-65
2021/08/22 02:41:24;;;;;;;;;;;20.90;69.50;;;;;;5013754;28;1277;-65
2021/08/22 02:43:49;;;;;;;;;;;20.90;69.50;;;;;;5013499;28;1298;-66
2021/08/22 02:46:15;;;;;;;;;;;20.90;69.50;;;;;;5012766;28;1368;-65
2021/08/22 02:48:40;;;;;;;;;;;21.00;69.50;;;;;;5013626;28;1317;-66
2021/08/22 02:51:05;;;;;;;;;;;20.90;69.40;;;;;;5012447;28;1906;-66
2021/08/22 02:53:31;;;;;;;;;;;20.90;69.40;;;;;;5013341;28;1406;-65
2021/08/22 02:55:56;;;;;;;;;;;20.90;69.40;;;;;;5012246;28;1198;-66
2021/08/22 02:58:22;;;;;;;;;;;20.90;69.40;;;;;;5013850;28;1303;-66
2021/08/22 03:00:47;;;;;;;;;;;20.90;69.30;;;;;;5013827;28;1271;-66
2021/08/22 03:03:13;;;;;;;;;;;20.90;69.30;;;;;;5012972;28;1321;-66
2021/08/22 03:05:38;;;;;;;;;;;21.00;69.40;;;;;;5013394;28;1327;-65
2021/08/22 03:08:04;;;;;;;;;;;21.00;69.40;;;;;;5013276;28;1326;-66
2021/08/22 03:10:29;;;;;;;;;;;20.90;69.20;;;;;;5011939;28;1971;-66
2021/08/22 03:12:54;;;;;;;;;;;20.90;69.30;;;;;;5013223;28;1287;-66
2021/08/22 03:15:20;;;;;;;;;;;20.90;69.20;;;;;;5011939;28;1352;-66
2021/08/22 03:17:45;;;;;;;;;;;20.90;69.20;;;;;;5013151;28;1378;-66
2021/08/22 03:20:11;;;;;;;;;;;20.90;69.20;;;;;;5013397;28;1352;-66
2021/08/22 03:22:36;;;;;;;;;;;20.90;69.20;;;;;;5013211;28;1314;-66
2021/08/22 03:25:02;;;;;;;;;;;20.90;69.20;;;;;;5012785;28;1379;-66
2021/08/22 03:27:27;;;;;;;;;;;20.90;69.20;;;;;;5013358;28;1207;-66
2021/08/22 03:29:52;;;;;;;;;;;20.90;69.20;;;;;;5012932;28;1957;-66
2021/08/22 03:32:18;;;;;;;;;;;20.90;69.20;;;;;;5012912;28;1318;-66
2021/08/22 03:34:43;;;;;;;;;;;20.90;69.20;;;;;;5008946;28;1321;-65
2021/08/22 03:37:09;;;;;;;;;;;20.90;69.20;;;;;;5017673;28;1299;-65
2021/08/22 03:39:34;;;;;;;;;;;20.90;69.20;;;;;;5032751;28;1518;-65
2021/08/22 03:42:00;;;;;;;;;;;20.90;69.20;;;;;;5032971;28;1529;-65
2021/08/22 03:44:25;;;;;;;;;;;20.90;69.20;;;;;;5032410;28;1396;-65
2021/08/22 03:46:50;;;;;;;;;;;21.00;69.30;;;;;;5031445;28;1319;-66
2021/08/22 03:49:16;;;;;;;;;;;20.90;69.20;;;;;;5026432;28;1906;-66
2021/08/22 03:51:41;;;;;;;;;;;20.90;69.20;;;;;;5012900;28;1390;-66
2021/08/22 03:54:07;;;;;;;;;;;20.90;69.20;;;;;;5012554;28;1394;-66
2021/08/22 03:56:32;;;;;;;;;;;20.90;69.20;;;;;;5012935;28;1144;-66
2021/08/22 03:58:58;;;;;;;;;;;20.90;69.20;;;;;;5013001;28;1397;-66
2021/08/22 04:01:23;;;;;;;;;;;20.90;69.20;;;;;;5012699;28;1239;-66
2021/08/22 04:03:49;;;;;;;;;;;20.90;69.20;;;;;;5012641;28;1318;-66
2021/08/22 04:06:15;;;;;;;;;;;20.90;69.20;;;;;;5012728;28;1315;-66
2021/08/22 04:08:41;;;;;;;;;;;20.90;69.20;;;;;;5012804;28;1319;-65
2021/08/22 04:11:07;;;;;;;;;;;20.90;69.20;;;;;;5013093;28;1903;-65
2021/08/22 04:13:33;;;;;;;;;;;20.90;69.20;;;;;;5011137;28;1386;-66
2021/08/22 04:15:58;;;;;;;;;;;20.90;69.20;;;;;;5012639;28;1372;-65
2021/08/22 04:18:23;;;;;;;;;;;20.90;69.20;;;;;;5012624;28;1331;-65
2021/08/22 04:20:49;;;;;;;;;;;20.90;69.20;;;;;;5012633;28;1263;-65
2021/08/22 04:23:14;;;;;;;;;;;20.90;69.20;;;;;;5015043;28;1290;-65
2021/08/22 04:25:41;;;;;;;;;;;20.90;69.20;;;;;;5016673;28;1315;-65
2021/08/22 04:28:06;;;;;;;;;;;20.90;69.20;;;;;;5016371;28;1313;-65
2021/08/22 04:30:32;;;;;;;;;;;20.90;69.10;;;;;;5016225;28;1966;-66
2021/08/22 04:32:57;;;;;;;;;;;20.90;69.20;;;;;;5015124;28;1377;-65
2021/08/22 04:35:22;;;;;;;;;;;20.90;69.10;;;;;;5015933;28;1373;-65
2021/08/22 04:37:48;;;;;;;;;;;20.90;69.10;;;;;;5016188;28;1293;-65
2021/08/22 04:40:13;;;;;;;;;;;20.90;69.10;;;;;;5016118;28;1291;-65
2021/08/22 04:42:39;;;;;;;;;;;20.90;69.50;;;;;;5016120;28;1343;-65
2021/08/22 04:45:04;;;;;;;;;;;20.90;69.10;;;;;;5015695;28;1383;-65
2021/08/22 04:47:30;;;;;;;;;;;20.90;69.00;;;;;;5015869;28;1360;-65
2021/08/22 04:49:55;;;;;;;;;;;20.90;69.00;;;;;;5015888;28;1902;-65
2021/08/22 04:52:21;;;;;;;;;;;20.90;69.00;;;;;;5015970;28;1331;-65
2021/08/22 04:54:46;;;;;;;;;;;20.90;69.00;;;;;;5014400;28;1293;-66
2021/08/22 04:57:11;;;;;;;;;;;20.90;68.90;;;;;;5015774;28;1248;-65
2021/08/22 04:59:37;;;;;;;;;;;20.90;68.90;;;;;;5016115;28;1366;-65
2021/08/22 05:02:04;;;;;;;;;;;20.90;68.90;;;;;;5015375;28;1342;-65
2021/08/22 05:04:30;;;;;;;;;;;20.90;68.90;;;;;;5015465;28;1318;-65
2021/08/22 05:06:55;;;;;;;;;;;20.90;68.90;;;;;;5015427;28;1263;-66
2021/08/22 05:09:21;;;;;;;;;;;20.90;68.80;;;;;;5015960;28;1969;-65
2021/08/22 05:11:46;;;;;;;;;;;20.90;68.90;;;;;;5015297;28;1350;-65
2021/08/22 05:14:12;;;;;;;;;;;20.90;68.80;;;;;;5015293;28;1302;-66
2021/08/22 05:16:41;;;;;;;;;;;20.90;68.80;;;;;;5015292;28;1309;-65
2021/08/22 05:19:07;;;;;;;;;;;20.90;68.80;;;;;;5015423;28;1338;-65
2021/08/22 05:21:32;;;;;;;;;;;20.90;68.70;;;;;;5015258;28;1367;-65
2021/08/22 05:23:57;;;;;;;;;;;20.90;68.70;;;;;;5015181;28;1271;-66
2021/08/22 05:26:23;;;;;;;;;;;20.90;68.70;;;;;;5015193;28;1356;-65
2021/08/22 05:28:48;;;;;;;;;;;20.90;68.70;;;;;;5015520;28;1349;-66
2021/08/22 05:31:14;;;;;;;;;;;20.90;68.70;;;;;;5015000;28;1969;-66
2021/08/22 05:33:39;;;;;;;;;;;20.90;68.60;;;;;;5014659;28;1368;-65
2021/08/22 05:36:15;;;;;;;;;;;20.90;68.20;;;;;;5015125;28;1465;-66
2021/08/22 05:38:40;;;;;;;;;;;20.90;67.90;;;;;;5015365;28;1314;-66
2021/08/22 05:41:06;;;;;;;;;;;20.90;67.60;;;;;;5014927;28;1358;-66
2021/08/22 05:43:31;;;;;;;;;;;20.90;67.40;;;;;;5014556;28;1332;-65
2021/08/22 05:45:56;;;;;;;;;;;20.90;67.50;;;;;;5015011;28;1465;-66
2021/08/22 05:48:22;;;;;;;;;;;20.90;67.70;;;;;;5014934;28;1388;-65
2021/08/22 05:50:47;;;;;;;;;;;20.90;67.40;;;;;;5014618;28;1891;-65
2021/08/22 05:53:13;;;;;;;;;;;20.90;67.30;;;;;;5014529;28;1318;-66
2021/08/22 05:55:38;;;;;;;;;;;20.90;67.50;;;;;;5014543;28;1314;-66
2021/08/22 05:58:04;;;;;;;;;;;20.90;67.50;;;;;;5014757;28;1320;-66
2021/08/22 06:00:29;;;;;;;;;;;20.90;67.20;;;;;;5013338;28;1864;-65
2021/08/22 06:02:55;;;;;;;;;;;20.90;66.80;;;;;;5018042;28;1289;-64
2021/08/22 06:05:20;;;;;;;;;;;20.90;66.80;;;;;;5032530;28;1251;-65
2021/08/22 06:07:45;;;;;;;;;;;20.90;67.20;;;;;;5006274;28;1281;-65
2021/08/22 06:10:11;;;;;;;;;;;20.90;66.90;;;;;;5014289;28;1965;-65
2021/08/22 06:12:36;;;;;;;;;;;20.90;66.40;;;;;;5047096;22;2473;-73
2021/08/22 06:15:02;;;;;;;;;;;20.90;67.30;;;;;;5033850;28;1019;-71
2021/08/22 06:17:27;;;;;;;;;;;20.90;66.80;;;;;;5044166;28;1045;-72
2021/08/22 06:19:53;;;;;;;;;;;20.90;66.10;;;;;;5039600;28;1598;-72
2021/08/22 06:22:18;;;;;;;;;;;20.90;66.40;;;;;;5042918;28;1338;-72
2021/08/22 06:24:44;;;;;;;;;;;20.90;66.10;;;;;;5032674;28;900;-70
2021/08/22 06:27:09;;;;;;;;;;;20.90;65.80;;;;;;5038027;28;1892;-71
2021/08/22 06:29:35;;;;;;;;;;;20.90;65.60;;;;;;5035081;28;1918;-71
2021/08/22 06:32:00;;;;;;;;;;;20.90;65.60;;;;;;5041036;28;1622;-71
2021/08/22 06:34:26;;;;;;;;;;;20.90;65.20;;;;;;5035958;28;1360;-71
2021/08/22 06:36:51;;;;;;;;;;;20.90;65.90;;;;;;5033154;28;1627;-70
2021/08/22 06:39:16;;;;;;;;;;;20.90;65.30;;;;;;5045728;28;1596;-70
2021/08/22 06:41:42;;;;;;;;;;;20.90;65.20;;;;;;5043612;28;1357;-70
2021/08/22 06:44:07;;;;;;;;;;;20.90;64.90;;;;;;5034488;28;1577;-70
2021/08/22 06:46:33;;;;;;;;;;;20.90;65.60;;;;;;5042894;28;1544;-71
2021/08/22 06:48:58;;;;;;;;;;;20.90;65.30;;;;;;5040388;28;1903;-72
2021/08/22 06:51:24;;;;;;;;;;;20.90;65.20;;;;;;5043158;28;1035;-70
2021/08/22 06:53:50;;;;;;;;;;;20.90;66.30;;;;;;5049077;28;1310;-71
2021/08/22 06:56:15;;;;;;;;;;;20.90;65.40;;;;;;5043085;28;1378;-71
2021/08/22 06:58:41;;;;;;;;;;;20.90;65.10;;;;;;5032088;28;1590;-69
2021/08/22 07:01:06;;;;;;;;;;;20.90;65.30;;;;;;5033493;28;1388;-72
2021/08/22 07:03:32;;;;;;;;;;;20.90;65.30;;;;;;5033015;28;1629;-70
2021/08/22 07:05:57;;;;;;;;;;;20.90;65.30;;;;;;5033500;28;1568;-70
2021/08/22 07:08:23;;;;;;;;;;;20.90;65.30;;;;;;5033528;28;1432;-70
2021/08/22 07:10:48;;;;;;;;;;;20.80;65.20;;;;;;5033201;28;1969;-69
2021/08/22 07:13:13;;;;;;;;;;;20.90;65.70;;;;;;5032558;28;1366;-70
2021/08/22 07:15:39;;;;;;;;;;;20.90;65.30;;;;;;5033278;28;1555;-72
2021/08/22 07:18:04;;;;;;;;;;;20.90;65.20;;;;;;5033328;28;1723;-71
2021/08/22 07:20:30;;;;;;;;;;;20.90;65.20;;;;;;5033103;28;1563;-71
2021/08/22 07:22:55;;;;;;;;;;;20.90;65.40;;;;;;5045198;28;1500;-72
2021/08/22 07:25:21;;;;;;;;;;;20.90;65.60;;;;;;5041562;28;1739;-71
2021/08/22 07:27:47;;;;;;;;;;;20.90;65.80;;;;;;5050388;28;860;-70
2021/08/22 07:30:12;;;;;;;;;;;20.90;66.00;;;;;;5044987;28;1937;-71
2021/08/22 07:32:38;;;;;;;;;;;20.90;65.80;;;;;;5047232;28;1562;-72
2021/08/22 07:35:04;;;;;;;;;;;20.90;65.70;;;;;;5041995;28;1157;-72
2021/08/22 07:37:29;;;;;;;;;;;20.90;65.90;;;;;;5037130;28;1149;-70
2021/08/22 07:39:55;;;;;;;;;;;20.90;65.90;;;;;;5041756;28;1173;-71
2021/08/22 07:42:20;;;;;;;;;;;20.90;65.90;;;;;;5051558;28;1426;-71
2021/08/22 07:44:46;;;;;;;;;;;20.90;65.80;;;;;;5044131;28;1015;-72
2021/08/22 07:47:11;;;;;;;;;;;20.90;65.00;;;;;;5046371;28;1338;-72
2021/08/22 07:49:36;;;;;;;;;;;20.90;65.60;;;;;;5033132;28;1894;-72
2021/08/22 07:52:02;;;;;;;;;;;20.90;65.60;;;;;;5044913;28;1240;-71
2021/08/22 07:54:27;;;;;;;;;;;20.90;65.70;;;;;;5042345;28;1015;-73
2021/08/22 07:56:53;;;;;;;;;;;20.90;65.60;;;;;;5051342;28;1846;-73
2021/08/22 07:59:18;;;;;;;;;;;20.90;65.70;;;;;;5040061;28;1416;-73
2021/08/22 08:01:44;;;;;;;;;;;20.90;65.00;;;;;;5043872;28;2185;-72
2021/08/22 08:04:09;;;;;;;;;;;20.90;65.30;;;;;;5046529;28;1980;-73
2021/08/22 08:06:34;;;;;;;;;;;20.90;66.00;;;;;;5031503;28;1443;-72
2021/08/22 08:09:00;;;;;;;;;;;20.90;66.00;;;;;;5049335;28;1898;-71
2021/08/22 08:11:26;;;;;;;;;;;20.90;65.90;;;;;;5054367;28;1476;-72
2021/08/22 08:13:51;;;;;;;;;;;20.90;66.00;;;;;;5036187;28;1292;-72
2021/08/22 08:16:16;;;;;;;;;;;20.90;65.80;;;;;;5050137;28;1414;-72
2021/08/22 08:18:42;;;;;;;;;;;20.90;66.00;;;;;;5035490;28;1655;-72
2021/08/22 08:21:07;;;;;;;;;;;20.90;66.20;;;;;;5035286;28;1214;-71
2021/08/22 08:23:33;;;;;;;;;;;20.90;66.10;;;;;;5043980;28;1469;-72
2021/08/22 08:25:58;;;;;;;;;;;20.90;66.40;;;;;;5048306;28;1448;-74
2021/08/22 08:28:24;;;;;;;;;;;20.90;66.40;;;;;;5044075;28;1253;-74
2021/08/22 08:30:49;;;;;;;;;;;20.90;66.30;;;;;;5043067;28;1963;-71
2021/08/22 08:33:15;;;;;;;;;;;20.90;66.60;;;;;;5045163;28;1299;-72
2021/08/22 08:35:40;;;;;;;;;;;20.90;66.50;;;;;;5035875;28;1365;-72
2021/08/22 08:38:06;;;;;;;;;;;20.90;66.60;;;;;;5044308;28;1378;-71
2021/08/22 08:40:31;;;;;;;;;;;20.90;66.30;;;;;;5041460;28;1324;-72
2021/08/22 08:42:57;;;;;;;;;;;20.90;66.20;;;;;;5042631;28;1295;-72
2021/08/22 08:45:33;;;;;;;;;;;20.90;66.10;;;;;;5041204;28;1406;-72
2021/08/22 08:47:58;;;;;;;;;;;20.90;66.40;;;;;;5043832;28;1366;-73
2021/08/22 08:50:44;;;;;;;;;;;20.90;66.70;;;;;;5068976;28;1960;-72
2021/08/22 08:53:10;;;;;;;;;;;20.90;66.70;;;;;;5043328;28;1406;-72
2021/08/22 08:55:49;;;;;;;;;;;20.90;66.60;;;;;;5033240;28;1610;-72
2021/08/22 08:58:15;;;;;;;;;;;20.90;66.10;;;;;;5045008;28;1274;-73
2021/08/22 09:00:43;;;;;;;;;;;20.90;66.10;;;;;;5042873;28;1398;-73
2021/08/22 09:03:12;;;;;;;;;;;20.90;66.00;;;;;;5042464;28;1386;-73
2021/08/22 09:05:56;;;;;;;;;;;20.90;65.80;;;;;;5046879;28;1419;-73
2021/08/22 09:08:47;;;;;;;;;;;21.00;65.90;;;;;;5051744;28;1720;-72
2021/08/22 09:11:31;;;;;;;;;;;21.00;66.10;;;;;;5033098;28;1902;-73
2021/08/22 09:14:15;;;;;;;;;;;21.00;66.40;;;;;;5034991;28;1468;-73
2021/08/22 09:16:59;;;;;;;;;;;21.00;66.20;;;;;;5048605;28;1135;-71
2021/08/22 09:19:43;;;;;;;;;;;21.00;66.80;;;;;;5035674;28;1685;-73
2021/08/22 09:22:29;;;;;;;;;;;21.00;65.60;;;;;;5035260;28;1239;-71
2021/08/22 09:25:13;;;;;;;;;;;21.00;65.50;;;;;;5038800;28;1708;-72
2021/08/22 09:27:57;;;;;;;;;;;21.00;65.70;;;;;;5039895;28;1436;-71
2021/08/22 09:30:25;;;;;;;;;;;21.00;65.80;;;;;;5035303;28;1961;-71
2021/08/22 09:33:09;;;;;;;;;;;21.00;65.60;;;;;;5049650;28;1393;-71
2021/08/22 09:35:53;;;;;;;;;;;21.00;65.70;;;;;;5041398;28;872;-71
2021/08/22 09:38:33;;;;;;;;;;;21.10;65.90;;;;;;5035401;28;1397;-72
2021/08/22 09:40:59;;;;;;;;;;;21.00;66.20;;;;;;5051903;28;1686;-72
2021/08/22 09:43:30;;;;;;;;;;;21.10;66.40;;;;;;5042009;28;1209;-73
2021/08/22 09:45:59;;;;;;;;;;;21.00;66.30;;;;;;5040459;28;1179;-72
2021/08/22 09:48:43;;;;;;;;;;;21.00;66.60;;;;;;5042632;28;817;-72
2021/08/22 09:51:27;;;;;;;;;;;21.10;66.70;;;;;;5035065;28;1910;-72
2021/08/22 09:54:11;;;;;;;;;;;21.00;66.30;;;;;;5034722;28;1591;-72
2021/08/22 09:56:39;;;;;;;;;;;21.00;66.20;;;;;;5053491;28;1440;-70
2021/08/22 09:59:24;;;;;;;;;;;21.10;65.90;;;;;;5053457;28;1604;-70
2021/08/22 10:02:08;;;;;;;;;;;21.00;65.60;;;;;;5040919;28;1363;-71
2021/08/22 10:04:36;;;;;;;;;;;21.00;65.40;;;;;;5042875;28;1069;-74
2021/08/22 10:07:04;;;;;;;;;;;21.00;65.50;;;;;;5053207;28;1219;-74
2021/08/22 10:09:50;;;;;;;;;;;21.00;65.60;;;;;;5054046;28;1894;-74
2021/08/22 10:12:16;;;;;;;;;;;21.10;66.60;;;;;;5043761;28;1315;-74
2021/08/22 10:14:41;;;;;;;;;;;21.00;66.20;;;;;;5037277;28;1183;-75
2021/08/22 10:17:07;;;;;;;;;;;21.00;66.30;;;;;;5054382;28;849;-74
2021/08/22 10:19:33;;;;;;;;;;;21.00;67.10;;;;;;5040588;28;1352;-75
2021/08/22 10:22:05;;;;;;;;;;;21.00;67.40;;;;;;5054661;28;1349;-75
2021/08/22 10:24:37;;;;;;;;;;;21.00;67.40;;;;;;5041428;28;1359;-75
2021/08/22 10:27:06;;;;;;;;;;;21.00;67.50;;;;;;5063025;28;1224;-72
2021/08/22 10:29:32;;;;;;;;;;;21.00;67.20;;;;;;5052926;28;1894;-71
2021/08/22 10:32:05;;;;;;;;;;;21.00;67.00;;;;;;5049175;28;1416;-71
2021/08/22 10:34:31;;;;;;;;;;;21.00;66.40;;;;;;5035288;28;1549;-71
2021/08/22 10:36:56;;;;;;;;;;;21.00;66.00;;;;;;5044320;28;1635;-71
2021/08/22 10:39:22;;;;;;;;;;;21.00;66.40;;;;;;5036251;28;1690;-71
2021/08/22 10:41:51;;;;;;;;;;;21.00;66.90;;;;;;5044311;28;1462;-72
2021/08/22 10:44:34;;;;;;;;;;;21.00;68.00;;;;;;5049821;28;1700;-71
2021/08/22 10:47:03;;;;;;;;;;;21.00;67.40;;;;;;5033211;28;1395;-71
2021/08/22 10:49:47;;;;;;;;;;;21.00;67.50;;;;;;5049659;28;1957;-71
2021/08/22 10:52:21;;;;;;;;;;;21.00;67.40;;;;;;5056216;28;1436;-71
2021/08/22 10:55:05;;;;;;;;;;;21.00;67.20;;;;;;5053169;28;1382;-72
2021/08/22 10:57:48;;;;;;;;;;;21.00;68.30;;;;;;5033654;28;1826;-71
2021/08/22 11:00:22;;;;;;;;;;;21.00;68.40;;;;;;5036747;28;1776;-72
2021/08/22 11:02:48;;;;;;;;;;;21.00;68.50;;;;;;5042173;28;1267;-72
2021/08/22 11:05:15;;;;;;;;;;;21.00;68.70;;;;;;5037735;28;1331;-72
2021/08/22 11:07:44;;;;;;;;;;;21.00;69.00;;;;;;5041827;28;1605;-71
2021/08/22 11:10:15;;;;;;;;;;;21.00;68.90;;;;;;5033568;28;1902;-71
2021/08/22 11:12:41;;;;;;;;;;;21.00;68.90;;;;;;5031755;28;1581;-72
2021/08/22 11:15:06;;;;;;;;;;;21.00;68.80;;;;;;5046147;28;1273;-72
2021/08/22 11:17:32;;;;;;;;;;;21.00;69.20;;;;;;5032088;28;1303;-73
2021/08/22 11:20:26;;;;;;;;;;;21.00;69.30;;;;;;5033316;28;984;-70
2021/08/22 11:23:00;;;;;;;;;;;21.00;69.30;;;;;;5030529;28;1421;-71
2021/08/22 11:25:26;;;;;;;;;;;21.00;69.30;;;;;;5042409;28;1437;-71
2021/08/22 11:28:02;;;;;;;;;;;21.00;69.10;;;;;;5034375;28;1570;-70
2021/08/22 11:30:27;;;;;;;;;;;21.00;69.10;;;;;;5043958;28;1957;-71
2021/08/22 11:32:54;;;;;;;;;;;21.00;68.90;;;;;;5039559;28;1374;-72
2021/08/22 11:35:21;;;;;;;;;;;21.00;68.90;;;;;;5040796;28;884;-72
2021/08/22 11:37:47;;;;;;;;;;;21.00;69.20;;;;;;5037187;28;797;-73
2021/08/22 11:40:13;;;;;;;;;;;21.00;69.30;;;;;;5040693;28;979;-72
2021/08/22 11:42:42;;;;;;;;;;;21.00;69.50;;;;;;5045151;28;1770;-72
2021/08/22 11:45:11;;;;;;;;;;;21.00;69.60;;;;;;5045712;28;829;-72
2021/08/22 11:47:37;;;;;;;;;;;21.00;69.80;;;;;;5045111;28;928;-72
2021/08/22 11:50:06;;;;;;;;;;;21.00;69.80;;;;;;5046321;28;1906;-74
2021/08/22 11:52:32;;;;;;;;;;;21.00;70.10;;;;;;5051274;28;1765;-74
2021/08/22 11:54:57;;;;;;;;;;;21.00;70.10;;;;;;5051242;28;1741;-72
2021/08/22 11:57:23;;;;;;;;;;;21.00;70.40;;;;;;5045543;28;1252;-73
2021/08/22 12:00:04;;;;;;;;;;;21.00;70.40;;;;;;5044501;28;911;-73
2021/08/22 12:02:30;;;;;;;;;;;21.00;70.40;;;;;;5044159;28;1251;-72
2021/08/22 12:05:17;;;;;;;;;;;21.00;70.50;;;;;;5032912;28;1202;-72
2021/08/22 12:07:42;;;;;;;;;;;21.00;70.80;;;;;;5049659;28;1259;-72
2021/08/22 12:10:08;;;;;;;;;;;21.00;70.90;;;;;;5039715;28;1965;-73
2021/08/22 12:15:07;;;;;;;;;;;21.00;71.10;;;;;;5003438;28;1738;-64
2021/08/22 12:17:33;;;;;;;;;;;21.00;70.90;;;;;;5007051;28;1591;-65
2021/08/22 12:20:13;;;;;;;;;;;21.00;70.70;;;;;;5011544;28;1748;-65
2021/08/22 12:22:38;;;;;;;;;;;21.00;70.80;;;;;;5012839;28;1575;-64
2021/08/22 12:25:04;;;;;;;;;;;21.00;71.00;;;;;;5011733;28;1681;-65
2021/08/22 12:27:31;;;;;;;;;;;21.00;71.70;;;;;;5012037;28;1301;-65
2021/08/22 12:30:04;;;;;;;;;;;21.00;72.00;;;;;;5011741;28;1914;-65
2021/08/22 12:32:29;;;;;;;;;;;21.00;72.20;;;;;;5011543;28;1373;-65
2021/08/22 12:35:01;;;;;;;;;;;21.00;72.10;;;;;;5010740;28;1647;-65
2021/08/22 12:37:27;;;;;;;;;;;21.00;71.70;;;;;;5012546;28;1314;-64
2021/08/22 12:40:05;;;;;;;;;;;21.00;71.60;;;;;;5012474;28;1520;-64
2021/08/22 12:42:30;;;;;;;;;;;21.00;71.50;;;;;;5012082;28;1382;-64
2021/08/22 12:44:57;;;;;;;;;;;21.00;71.50;;;;;;5014775;28;1379;-65
2021/08/22 12:47:23;;;;;;;;;;;21.00;71.50;;;;;;5016001;28;1455;-64
2021/08/22 12:49:48;;;;;;;;;;;21.00;71.40;;;;;;5013916;28;1894;-65
2021/08/22 12:52:16;;;;;;;;;;;21.00;71.40;;;;;;5015068;28;1332;-65
2021/08/22 12:54:42;;;;;;;;;;;21.00;71.40;;;;;;5014758;28;1321;-66
2021/08/22 12:57:07;;;;;;;;;;;21.00;71.40;;;;;;5013950;28;1281;-64
2021/08/22 12:59:33;;;;;;;;;;;21.00;71.40;;;;;;5014056;28;1404;-64
2021/08/22 13:01:58;;;;;;;;;;;21.00;71.60;;;;;;5012390;28;1843;-65
2021/08/22 13:04:24;;;;;;;;;;;21.00;71.50;;;;;;5011709;28;1325;-64
2021/08/22 13:06:50;;;;;;;;;;;21.00;71.40;;;;;;5013903;28;1329;-64
2021/08/22 13:09:15;;;;;;;;;;;21.00;72.00;;;;;;5015019;28;1898;-64
2021/08/22 13:11:41;;;;;;;;;;;21.00;71.40;;;;;;5013432;28;1463;-65
2021/08/22 13:14:07;;;;;;;;;;;21.00;71.30;;;;;;5013426;28;1306;-65
2021/08/22 13:16:33;;;;;;;;;;;21.00;71.40;;;;;;5013492;28;1298;-64
2021/08/22 13:18:58;;;;;;;;;;;21.00;71.30;;;;;;5015392;28;1271;-64
2021/08/22 13:21:24;;;;;;;;;;;21.00;71.40;;;;;;5015505;28;1315;-64
2021/08/22 13:23:52;;;;;;;;;;;21.00;71.30;;;;;;5015022;28;1346;-64
2021/08/22 13:26:17;;;;;;;;;;;21.00;71.40;;;;;;5014972;28;1293;-64
2021/08/22 13:28:43;;;;;;;;;;;21.00;71.20;;;;;;5010503;28;1974;-64
2021/08/22 13:31:08;;;;;;;;;;;21.00;71.20;;;;;;5014730;28;1973;-64
2021/08/22 13:33:34;;;;;;;;;;;21.00;71.40;;;;;;5013701;28;1283;-64
2021/08/22 13:35:59;;;;;;;;;;;21.00;71.20;;;;;;5013590;28;1556;-64
2021/08/22 13:38:24;;;;;;;;;;;21.00;71.40;;;;;;5013861;28;1289;-63
2021/08/22 13:40:50;;;;;;;;;;;21.00;71.40;;;;;;5013497;28;1553;-64
2021/08/22 13:43:15;;;;;;;;;;;21.00;71.30;;;;;;5011456;28;1343;-64
2021/08/22 13:45:41;;;;;;;;;;;21.00;71.40;;;;;;5014939;28;1151;-64
2021/08/22 13:48:06;;;;;;;;;;;21.00;71.40;;;;;;5014854;28;992;-64
2021/08/22 13:50:32;;;;;;;;;;;21.00;71.30;;;;;;5028000;28;1902;-65
2021/08/22 13:53:01;;;;;;;;;;;21.00;71.40;;;;;;5014891;28;1326;-64
2021/08/22 13:55:26;;;;;;;;;;;21.10;71.40;;;;;;5014476;28;1246;-64
2021/08/22 13:57:52;;;;;;;;;;;21.00;71.30;;;;;;5012210;28;1511;-65
2021/08/22 14:00:17;;;;;;;;;;;21.00;71.40;;;;;;5014724;28;1183;-64
2021/08/22 14:02:43;;;;;;;;;;;21.00;71.30;;;;;;5014472;28;1709;-64
2021/08/22 14:05:08;;;;;;;;;;;21.00;71.40;;;;;;5014032;28;1216;-65
2021/08/22 14:07:34;;;;;;;;;;;21.00;71.40;;;;;;5014427;28;1429;-64
2021/08/22 14:09:59;;;;;;;;;;;21.00;71.40;;;;;;5014163;28;1902;-64
2021/08/22 14:12:25;;;;;;;;;;;21.00;71.40;;;;;;5014170;28;1508;-64
2021/08/22 14:14:50;;;;;;;;;;;21.00;71.40;;;;;;5013736;28;1274;-64
2021/08/22 14:17:16;;;;;;;;;;;21.00;71.40;;;;;;5014011;28;1341;-64
2021/08/22 14:19:41;;;;;;;;;;;21.00;71.40;;;;;;5013805;28;1283;-65
2021/08/22 14:22:07;;;;;;;;;;;21.00;71.40;;;;;;5014028;28;1336;-65
2021/08/22 14:24:32;;;;;;;;;;;21.00;71.40;;;;;;5013731;28;1309;-64
2021/08/22 14:26:58;;;;;;;;;;;21.00;71.40;;;;;;5013985;28;1076;-65
2021/08/22 14:29:23;;;;;;;;;;;21.00;71.40;;;;;;5013603;28;1918;-64
2021/08/22 14:31:49;;;;;;;;;;;21.00;71.40;;;;;;5013678;28;936;-64
2021/08/22 14:34:16;;;;;;;;;;;21.00;71.40;;;;;;5013888;28;1209;-64